createdAt,value
2019-01-04T00:01:59.493Z,21.83
2019-01-04T00:04:31.025Z,21.77
2019-01-04T00:07:02.416Z,23.23
2019-01-04T00:09:33.646Z,19.03
2019-01-04T00:12:04.942Z,19.97
2019-01-04T00:14:36.171Z,23.87
2019-01-04T00:17:07.445Z,19.50
2019-01-04T00:19:38.618Z,22.47
2019-01-04T00:22:11.950Z,23.57
2019-01-04T00:24:43.127Z,22.97
2019-01-04T00:27:14.325Z,20.47
2019-01-04T00:29:45.593Z,20.90
2019-01-04T00:32:16.795Z,18.43
2019-01-04T00:34:48.320Z,26.53
2019-01-04T00:37:19.636Z,24.43
2019-01-04T00:39:50.856Z,21.70
2019-01-04T00:42:22.085Z,23.67
2019-01-04T00:44:53.327Z,21.97
2019-01-04T00:47:24.573Z,22.53
2019-01-04T00:49:55.803Z,24.43
2019-01-04T00:52:26.997Z,21.43
2019-01-04T00:55:01.295Z,24.60
2019-01-04T00:57:55.068Z,24.07
2019-01-04T01:01:19.112Z,20.03
2019-01-04T01:04:34.617Z,28.73
2019-01-04T01:07:22.571Z,22.97
2019-01-04T01:10:27.816Z,20.40
2019-01-04T01:13:30.109Z,20.07
2019-01-04T01:16:53.510Z,21.30
2019-01-04T01:20:05.750Z,23.47
2019-01-04T01:23:17.787Z,23.03
2019-01-04T01:26:29.468Z,22.73
2019-01-04T01:29:58.871Z,23.70
2019-01-04T01:33:04.879Z,26.33
2019-01-04T01:36:10.799Z,25.07
2019-01-04T01:39:18.149Z,25.83
2019-01-04T01:42:20.439Z,24.57
2019-01-04T01:45:40.895Z,24.80
2019-01-04T01:48:34.255Z,24.87
2019-01-04T01:51:29.760Z,20.90
2019-01-04T01:54:00.951Z,20.93
2019-01-04T01:56:32.149Z,29.20
2019-01-04T01:59:03.390Z,23.73
2019-01-04T02:01:34.629Z,21.23
2019-01-04T02:04:05.879Z,18.50
2019-01-04T02:06:37.068Z,23.07
2019-01-04T02:09:10.310Z,25.97
2019-01-04T02:11:41.506Z,27.80
2019-01-04T02:14:12.748Z,17.87
2019-01-04T02:16:44.048Z,21.80
2019-01-04T02:19:15.268Z,18.00
2019-01-04T02:21:46.498Z,23.40
2019-01-04T02:24:17.730Z,19.63
2019-01-04T02:26:48.948Z,21.83
2019-01-04T02:29:20.150Z,23.27
2019-01-04T02:31:51.359Z,19.90
2019-01-04T02:34:22.549Z,23.00
2019-01-04T02:36:53.677Z,24.27
2019-01-04T02:39:24.914Z,28.17
2019-01-04T02:41:56.109Z,21.70
2019-01-04T02:44:27.299Z,24.70
2019-01-04T02:46:58.523Z,18.57
2019-01-04T02:49:29.804Z,20.23
2019-01-04T02:52:01.016Z,23.23
2019-01-04T02:54:32.246Z,22.00
2019-01-04T02:57:03.494Z,22.03
2019-01-04T02:59:34.684Z,23.27
2019-01-04T03:02:07.669Z,25.33
2019-01-04T03:04:38.883Z,23.23
2019-01-04T03:07:10.027Z,23.03
2019-01-04T03:09:41.366Z,19.20
2019-01-04T03:12:12.497Z,20.90
2019-01-04T03:14:43.729Z,18.80
2019-01-04T03:17:14.860Z,22.43
2019-01-04T03:19:46.097Z,21.97
2019-01-04T03:22:17.274Z,17.07
2019-01-04T03:24:48.448Z,19.13
2019-01-04T03:27:19.706Z,18.93
2019-01-04T03:29:51.076Z,20.07
2019-01-04T03:32:22.308Z,18.97
2019-01-04T03:34:53.510Z,24.63
2019-01-04T03:37:24.715Z,22.20
2019-01-04T03:39:55.941Z,16.70
2019-01-04T03:42:27.118Z,17.30
2019-01-04T03:44:58.301Z,19.80
2019-01-04T03:47:29.502Z,19.70
2019-01-04T03:50:00.932Z,21.07
2019-01-04T03:52:32.113Z,20.27
2019-01-04T03:55:03.319Z,19.37
2019-01-04T03:57:34.572Z,16.23
2019-01-04T04:00:06.623Z,22.10
2019-01-04T04:02:37.860Z,19.93
2019-01-04T04:05:09.107Z,18.17
2019-01-04T04:07:40.316Z,20.17
2019-01-04T04:10:11.498Z,19.20
2019-01-04T04:12:42.739Z,17.97
2019-01-04T04:15:13.991Z,17.77
2019-01-04T04:17:45.143Z,15.60
2019-01-04T04:20:16.327Z,20.37
2019-01-04T04:22:47.484Z,21.23
2019-01-04T04:25:18.682Z,20.27
2019-01-04T04:27:49.885Z,16.13
2019-01-04T04:30:21.082Z,18.90
2019-01-04T04:32:52.294Z,15.90
2019-01-04T04:35:23.551Z,18.43
2019-01-04T04:37:54.740Z,20.03
2019-01-04T04:40:25.918Z,17.23
2019-01-04T04:42:57.164Z,18.20
2019-01-04T04:45:28.369Z,16.63
2019-01-04T04:47:59.606Z,21.23
2019-01-04T04:50:30.845Z,17.67
2019-01-04T04:53:02.185Z,14.07
2019-01-04T04:55:33.434Z,16.27
2019-01-04T04:58:04.677Z,16.67
2019-01-04T05:00:35.902Z,16.93
2019-01-04T05:03:07.157Z,20.60
2019-01-04T05:05:38.334Z,16.63
2019-01-04T05:08:09.557Z,17.73
2019-01-04T05:10:40.678Z,22.07
2019-01-04T05:13:11.925Z,20.80
2019-01-04T05:15:43.101Z,20.13
2019-01-04T05:18:14.323Z,23.93
2019-01-04T05:20:45.500Z,19.10
2019-01-04T05:23:16.735Z,16.87
2019-01-04T05:25:47.930Z,18.37
2019-01-04T05:28:19.192Z,19.10
2019-01-04T05:30:50.417Z,20.07
2019-01-04T05:33:21.694Z,21.83
2019-01-04T05:35:52.911Z,18.37
2019-01-04T05:38:24.195Z,18.47
2019-01-04T05:40:55.396Z,21.23
2019-01-04T05:43:26.659Z,18.30
2019-01-04T05:45:57.954Z,23.33
2019-01-04T05:48:29.227Z,20.23
2019-01-04T05:51:00.511Z,26.03
2019-01-04T05:53:31.686Z,23.57
2019-01-04T05:56:02.863Z,23.17
2019-01-04T05:58:34.062Z,22.60
2019-01-04T06:01:05.226Z,22.33
2019-01-04T06:03:36.489Z,23.00
2019-01-04T06:06:07.678Z,22.47
2019-01-04T06:08:38.922Z,21.63
2019-01-04T06:11:11.253Z,22.80
2019-01-04T06:13:42.459Z,21.90
2019-01-04T06:16:13.677Z,20.60
2019-01-04T06:18:45.053Z,25.57
2019-01-04T06:21:16.292Z,22.93
2019-01-04T06:23:47.469Z,19.93
2019-01-04T06:26:18.711Z,26.53
2019-01-04T06:28:49.941Z,24.23
2019-01-04T06:31:21.175Z,21.43
2019-01-04T06:33:52.400Z,22.40
2019-01-04T06:36:23.689Z,22.90
2019-01-04T06:38:54.923Z,21.17
2019-01-04T06:41:26.184Z,17.90
2019-01-04T06:43:57.358Z,21.77
2019-01-04T06:46:28.597Z,19.17
2019-01-04T06:48:59.782Z,18.60
2019-01-04T06:51:31.000Z,18.80
2019-01-04T06:54:02.217Z,19.53
2019-01-04T06:56:33.393Z,22.97
2019-01-04T06:59:04.602Z,21.90
2019-01-04T07:01:36.174Z,24.17
2019-01-04T07:04:07.359Z,20.73
2019-01-04T07:06:38.530Z,21.40
2019-01-04T07:09:09.725Z,25.33
2019-01-04T07:11:40.989Z,20.33
2019-01-04T07:14:12.234Z,19.87
2019-01-04T07:16:43.497Z,22.57
2019-01-04T07:19:14.727Z,21.07
2019-01-04T07:21:46.010Z,26.30
2019-01-04T07:24:17.231Z,19.30
2019-01-04T07:26:48.480Z,17.40
2019-01-04T07:29:19.671Z,17.70
2019-01-04T07:31:50.901Z,19.47
2019-01-04T07:34:22.068Z,15.83
2019-01-04T07:36:53.289Z,20.23
2019-01-04T07:39:24.473Z,18.83
2019-01-04T07:41:55.673Z,19.13
2019-01-04T07:44:26.920Z,16.90
2019-01-04T07:46:58.145Z,15.37
2019-01-04T07:49:29.423Z,19.93
2019-01-04T07:52:00.598Z,18.43
2019-01-04T07:54:32.175Z,17.40
2019-01-04T07:57:03.405Z,17.50
2019-01-04T07:59:34.620Z,15.20
2019-01-04T08:02:33.813Z,17.07
2019-01-04T08:05:06.748Z,16.17
2019-01-04T08:07:38.018Z,15.37
2019-01-04T08:10:09.336Z,17.00
2019-01-04T08:12:40.733Z,15.33
2019-01-04T08:15:11.927Z,13.53
2019-01-04T08:17:43.164Z,12.33
2019-01-04T08:20:14.436Z,16.10
2019-01-04T08:22:45.786Z,15.40
2019-01-04T08:25:16.966Z,14.17
2019-01-04T08:27:48.188Z,13.90
2019-01-04T08:30:20.441Z,11.97
2019-01-04T08:32:51.829Z,7.37
2019-01-04T08:35:23.172Z,10.43
2019-01-04T08:37:54.336Z,10.43
2019-01-04T08:40:25.608Z,9.07
2019-01-04T08:42:56.814Z,8.57
2019-01-04T08:45:28.027Z,9.60
2019-01-04T08:47:59.296Z,10.23
2019-01-04T08:50:30.925Z,11.40
2019-01-04T08:53:02.166Z,8.80
2019-01-04T08:55:33.476Z,11.10
2019-01-04T08:58:04.651Z,13.87
2019-01-04T09:00:35.978Z,11.70
2019-01-04T09:03:07.202Z,14.50
2019-01-04T09:05:38.410Z,7.10
2019-01-04T09:08:09.653Z,14.13
2019-01-04T09:10:40.902Z,13.03
2019-01-04T09:13:12.173Z,14.13
2019-01-04T09:15:43.378Z,16.80
2019-01-04T09:18:14.690Z,16.17
2019-01-04T09:20:45.984Z,16.80
2019-01-04T09:23:17.469Z,14.73
2019-01-04T09:25:48.750Z,13.20
2019-01-04T09:28:20.095Z,19.53
2019-01-04T09:30:51.281Z,14.93
2019-01-04T09:33:22.483Z,16.23
2019-01-04T09:35:53.999Z,15.67
2019-01-04T09:38:25.210Z,12.87
2019-01-04T09:41:21.250Z,15.93
2019-01-04T09:43:52.426Z,17.13
2019-01-04T09:46:23.606Z,16.43
2019-01-04T09:48:54.881Z,22.07
2019-01-04T09:51:26.166Z,16.00
2019-01-04T09:53:57.566Z,10.90
2019-01-04T09:56:28.940Z,14.57
2019-01-04T09:59:00.179Z,21.73
2019-01-04T10:01:31.554Z,15.53
2019-01-04T10:04:02.817Z,17.13
2019-01-04T10:06:34.124Z,16.37
2019-01-04T10:09:06.846Z,13.80
2019-01-04T10:11:38.061Z,16.90
2019-01-04T10:14:09.299Z,13.17
2019-01-04T10:16:40.472Z,14.43
2019-01-04T10:19:11.630Z,11.50
2019-01-04T10:21:42.810Z,11.03
2019-01-04T10:24:14.004Z,16.40
2019-01-04T10:26:45.189Z,12.97
2019-01-04T10:29:16.448Z,12.90
2019-01-04T10:31:47.690Z,14.30
2019-01-04T10:34:18.895Z,12.23
2019-01-04T10:36:50.139Z,11.50
2019-01-04T10:39:21.352Z,11.87
2019-01-04T10:41:52.791Z,9.30
2019-01-04T10:44:23.979Z,9.30
2019-01-04T10:46:55.166Z,9.07
2019-01-04T10:49:26.352Z,7.57
2019-01-04T10:51:57.553Z,10.70
2019-01-04T10:54:28.715Z,9.37
2019-01-04T10:57:00.106Z,9.37
2019-01-04T10:59:31.353Z,11.03
2019-01-04T11:02:02.582Z,8.97
2019-01-04T11:04:33.906Z,9.10
2019-01-04T11:07:05.097Z,8.77
2019-01-04T11:09:36.302Z,8.73
2019-01-04T11:12:07.620Z,7.93
2019-01-04T11:14:38.812Z,8.00
2019-01-04T11:17:10.062Z,8.70
2019-01-04T11:19:41.249Z,9.13
2019-01-04T11:22:48.585Z,9.03
2019-01-04T11:25:57.886Z,9.70
2019-01-04T11:28:52.980Z,7.00
2019-01-04T11:31:36.816Z,10.37
2019-01-04T11:34:17.908Z,8.27
2019-01-04T11:37:18.087Z,10.03
2019-01-04T11:40:07.813Z,10.70
2019-01-04T11:43:22.667Z,9.43
2019-01-04T11:46:09.881Z,10.57
2019-01-04T11:49:20.699Z,10.30
2019-01-04T11:52:03.925Z,10.27
2019-01-04T11:54:35.216Z,10.33
2019-01-04T11:57:06.491Z,9.50
2019-01-04T11:59:37.720Z,10.37
2019-01-04T12:02:08.960Z,9.20
2019-01-04T12:04:40.212Z,10.00
2019-01-04T12:07:11.389Z,9.90
2019-01-04T12:09:42.650Z,9.17
2019-01-04T12:12:13.823Z,8.90
2019-01-04T12:14:45.180Z,10.03
2019-01-04T12:17:16.402Z,9.30
2019-01-04T12:19:47.632Z,10.00
2019-01-04T12:22:18.931Z,9.90
2019-01-04T12:24:50.145Z,10.27
2019-01-04T12:27:21.463Z,8.30
2019-01-04T12:29:52.661Z,6.80
2019-01-04T12:32:23.866Z,10.30
2019-01-04T12:34:55.093Z,8.63
2019-01-04T12:37:26.323Z,10.87
2019-01-04T12:39:57.573Z,10.47
2019-01-04T12:42:28.811Z,10.23
2019-01-04T12:45:00.132Z,9.93
2019-01-04T12:47:31.535Z,10.87
2019-01-04T12:50:02.666Z,10.37
2019-01-04T12:52:33.916Z,9.93
2019-01-04T12:55:05.619Z,9.00
2019-01-04T12:57:37.851Z,8.83
2019-01-04T13:00:11.424Z,9.40
2019-01-04T13:02:42.839Z,10.93
2019-01-04T13:05:14.097Z,10.67
2019-01-04T13:07:45.283Z,10.30
2019-01-04T13:10:16.518Z,9.57
2019-01-04T13:12:47.686Z,8.57
2019-01-04T13:15:18.871Z,8.67
2019-01-04T13:17:50.085Z,8.73
2019-01-04T13:20:21.299Z,9.23
2019-01-04T13:22:52.615Z,8.80
2019-01-04T13:25:23.824Z,8.70
2019-01-04T13:27:55.102Z,8.50
2019-01-04T13:30:27.381Z,8.77
2019-01-04T13:32:58.555Z,8.70
2019-01-04T13:35:29.752Z,7.37
2019-01-04T13:38:00.979Z,7.63
2019-01-04T13:40:32.180Z,8.10
2019-01-04T13:43:03.687Z,8.37
2019-01-04T13:45:34.995Z,8.53
2019-01-04T13:48:06.651Z,7.60
2019-01-04T13:50:38.342Z,8.67
2019-01-04T13:53:09.598Z,7.73
2019-01-04T13:55:40.891Z,8.83
2019-01-04T13:58:12.111Z,7.50
2019-01-04T14:00:43.371Z,9.77
2019-01-04T14:03:14.710Z,7.90
2019-01-04T14:05:46.063Z,9.13
2019-01-04T14:08:17.808Z,7.97
2019-01-04T14:10:49.342Z,11.60
2019-01-04T14:13:20.903Z,10.27
2019-01-04T14:15:52.615Z,11.40
2019-01-04T14:18:24.095Z,7.40
2019-01-04T14:20:55.281Z,8.43
2019-01-04T14:23:28.896Z,9.57
2019-01-04T14:25:59.601Z,7.50
2019-01-04T14:28:30.795Z,7.93
2019-01-04T14:31:01.975Z,7.67
2019-01-04T14:33:33.331Z,8.60
2019-01-04T14:36:06.954Z,8.03
2019-01-04T14:38:38.386Z,7.93
2019-01-04T14:41:09.693Z,7.70
2019-01-04T14:43:40.872Z,7.10
2019-01-04T14:46:12.059Z,10.00
2019-01-04T14:48:43.385Z,7.17
2019-01-04T14:51:14.578Z,8.27
2019-01-04T14:53:45.749Z,7.53
2019-01-04T14:56:18.584Z,7.27
2019-01-04T14:58:49.781Z,8.43
2019-01-04T15:01:20.927Z,6.90
2019-01-04T15:03:52.125Z,7.63
2019-01-04T15:06:23.443Z,6.67
2019-01-04T15:08:54.570Z,6.37
2019-01-04T15:11:25.844Z,6.80
2019-01-04T15:13:57.058Z,7.37
2019-01-04T15:16:28.217Z,6.23
2019-01-04T15:18:59.478Z,7.10
2019-01-04T15:21:30.680Z,10.33
2019-01-04T15:24:02.018Z,6.73
2019-01-04T15:26:33.195Z,6.60
2019-01-04T15:29:04.455Z,7.03
2019-01-04T15:31:35.635Z,6.73
2019-01-04T15:34:06.921Z,8.50
2019-01-04T15:36:38.322Z,7.00
2019-01-04T15:39:09.512Z,6.50
2019-01-04T15:41:40.908Z,10.93
2019-01-04T15:44:12.109Z,6.40
2019-01-04T15:46:43.400Z,6.30
2019-01-04T15:49:14.654Z,6.20
2019-01-04T15:51:45.882Z,6.07
2019-01-04T15:54:17.052Z,6.13
2019-01-04T15:56:48.299Z,6.87
2019-01-04T15:59:19.712Z,6.90
2019-01-04T16:01:50.929Z,6.90
2019-01-04T16:04:22.202Z,6.97
2019-01-04T16:06:53.491Z,6.33
2019-01-04T16:09:25.100Z,7.40
2019-01-04T16:11:57.112Z,6.57
2019-01-04T16:14:28.323Z,7.60
2019-01-04T16:16:59.836Z,6.73
2019-01-04T16:19:31.606Z,6.67
2019-01-04T16:22:03.084Z,6.53
2019-01-04T16:24:35.041Z,7.50
2019-01-04T16:27:06.492Z,7.43
2019-01-04T16:29:37.838Z,7.10
2019-01-04T16:32:09.283Z,6.97
2019-01-04T16:34:41.585Z,7.27
2019-01-04T16:37:13.392Z,7.30
2019-01-04T16:39:45.062Z,8.20
2019-01-04T16:42:17.890Z,7.37
2019-01-04T16:44:49.617Z,7.97
2019-01-04T16:47:21.214Z,7.70
2019-01-04T16:49:52.648Z,8.00
2019-01-04T16:52:24.351Z,8.53
2019-01-04T16:54:55.552Z,7.57
2019-01-04T16:57:26.768Z,7.27
2019-01-04T16:59:57.911Z,7.67
2019-01-04T17:02:29.154Z,7.73
2019-01-04T17:05:00.516Z,7.80
2019-01-04T17:07:31.756Z,7.37
2019-01-04T17:10:03.119Z,8.73
2019-01-04T17:12:34.326Z,10.53
2019-01-04T17:15:06.036Z,6.93
2019-01-04T17:17:37.329Z,7.13
2019-01-04T17:20:08.912Z,10.60
2019-01-04T17:22:40.148Z,9.17
2019-01-04T17:25:12.370Z,10.60
2019-01-04T17:27:43.849Z,8.93
2019-01-04T17:30:15.237Z,11.60
2019-01-04T17:32:46.497Z,11.57
2019-01-04T17:35:17.726Z,8.10
2019-01-04T17:37:49.126Z,7.97
2019-01-04T17:40:20.497Z,7.57
2019-01-04T17:42:51.745Z,8.00
2019-01-04T17:45:23.321Z,8.70
2019-01-04T17:47:54.669Z,10.60
2019-01-04T17:50:25.921Z,9.33
2019-01-04T17:52:57.220Z,7.37
2019-01-04T17:55:28.406Z,8.90
2019-01-04T17:57:59.694Z,7.90
2019-01-04T18:00:31.475Z,6.97
2019-01-04T18:03:02.702Z,7.90
2019-01-04T18:05:33.984Z,7.50
2019-01-04T18:08:06.583Z,6.90
2019-01-04T18:10:37.846Z,6.77
2019-01-04T18:13:09.140Z,6.30
2019-01-04T18:15:41.437Z,6.30
2019-01-04T18:18:12.824Z,7.60
2019-01-04T18:20:44.191Z,6.53
2019-01-04T18:23:15.521Z,7.57
2019-01-04T18:25:47.749Z,6.90
2019-01-04T18:28:19.002Z,6.97
2019-01-04T18:30:50.294Z,6.63
2019-01-04T18:33:21.553Z,6.80
2019-01-04T18:35:53.727Z,7.00
2019-01-04T18:38:24.988Z,7.63
2019-01-04T18:40:56.262Z,6.63
2019-01-04T18:43:27.853Z,7.30
2019-01-04T18:45:59.059Z,8.07
2019-01-04T18:48:30.473Z,6.97
2019-01-04T18:51:01.704Z,7.37
2019-01-04T18:53:32.937Z,6.97
2019-01-04T18:56:04.184Z,10.20
2019-01-04T18:58:35.643Z,8.73
2019-01-04T19:01:06.875Z,8.63
2019-01-04T19:03:38.122Z,8.27
2019-01-04T19:06:10.389Z,9.10
2019-01-04T19:08:42.225Z,10.13
2019-01-04T19:11:13.429Z,11.20
2019-01-04T19:13:44.734Z,9.00
2019-01-04T19:16:15.968Z,9.00
2019-01-04T19:18:47.184Z,7.77
2019-01-04T19:21:18.454Z,8.00
2019-01-04T19:23:49.743Z,7.77
2019-01-04T19:26:22.259Z,8.13
2019-01-04T19:28:53.523Z,7.53
2019-01-04T19:31:24.816Z,7.57
2019-01-04T19:33:56.034Z,7.20
2019-01-04T19:36:27.365Z,8.37
2019-01-04T19:38:58.624Z,7.13
2019-01-04T19:41:29.823Z,7.13
2019-01-04T19:44:02.124Z,7.33
2019-01-04T19:46:33.343Z,7.40
2019-01-04T19:49:04.791Z,6.87
2019-01-04T19:51:36.219Z,6.93
2019-01-04T19:54:07.710Z,6.60
2019-01-04T19:56:38.973Z,6.90
2019-01-04T19:59:10.331Z,6.27
2019-01-04T20:01:41.537Z,6.67
2019-01-04T20:04:12.834Z,6.17
2019-01-04T20:07:42.113Z,6.53
2019-01-04T20:11:42.453Z,6.10
2019-01-04T20:15:18.864Z,6.80
2019-01-04T20:18:24.131Z,6.13
2019-01-04T20:21:13.309Z,5.67
2019-01-04T20:24:06.696Z,6.73
2019-01-04T20:26:59.927Z,7.47
2019-01-04T20:29:49.082Z,6.20
2019-01-04T20:32:39.329Z,6.23
2019-01-04T20:35:38.836Z,6.43
2019-01-04T20:38:37.850Z,6.03
2019-01-04T20:41:37.029Z,6.13
2019-01-04T20:44:20.031Z,6.60
2019-01-04T20:47:16.294Z,6.27
2019-01-04T20:50:02.393Z,6.00
2019-01-04T20:53:10.907Z,6.23
2019-01-04T20:55:59.698Z,6.40
2019-01-04T20:58:43.830Z,6.40
2019-01-04T21:01:34.001Z,6.53
2019-01-04T21:04:27.308Z,6.87
2019-01-04T21:07:23.505Z,6.97
2019-01-04T21:10:22.592Z,6.00
2019-01-04T21:13:03.607Z,7.57
2019-01-04T21:16:00.003Z,6.47
2019-01-04T21:18:59.412Z,6.10
2019-01-04T21:21:49.267Z,6.53
2019-01-04T21:24:37.996Z,6.07
2019-01-04T21:27:19.296Z,6.33
2019-01-04T21:30:09.502Z,7.20
2019-01-04T21:33:12.190Z,6.20
2019-01-04T21:36:12.382Z,5.97
2019-01-04T21:39:01.848Z,5.73
2019-01-04T21:42:00.079Z,6.07
2019-01-04T21:44:53.065Z,6.53
2019-01-04T21:47:42.186Z,5.83
2019-01-04T21:50:51.800Z,6.63
2019-01-04T21:53:49.525Z,7.43
2019-01-04T21:56:48.751Z,6.73
2019-01-04T21:59:44.842Z,6.57
2019-01-04T22:02:43.925Z,5.73
2019-01-04T22:05:46.403Z,5.57
2019-01-04T22:08:35.259Z,5.90
2019-01-04T22:11:24.107Z,5.73
2019-01-04T22:14:17.031Z,6.00
2019-01-04T22:17:05.938Z,5.93
2019-01-04T22:19:56.100Z,9.70
2019-01-04T22:22:49.192Z,7.17
2019-01-04T22:25:42.968Z,6.70
2019-01-04T22:28:32.229Z,5.97
2019-01-04T22:31:34.538Z,5.77
2019-01-04T22:34:37.383Z,5.63
2019-01-04T22:37:36.861Z,5.67
2019-01-04T22:40:33.355Z,5.90
2019-01-04T22:43:26.510Z,4.97
2019-01-04T22:46:15.713Z,5.73
2019-01-04T22:49:09.171Z,6.80
2019-01-04T22:52:03.418Z,5.10
2019-01-04T22:54:52.271Z,6.40
2019-01-04T22:57:37.173Z,4.40
2019-01-04T23:00:34.055Z,4.73
2019-01-04T23:03:23.658Z,5.20
2019-01-04T23:06:23.184Z,4.97
2019-01-04T23:09:28.099Z,5.53
2019-01-04T23:12:16.935Z,5.37
2019-01-04T23:15:06.123Z,4.90
2019-01-04T23:18:00.209Z,6.27
2019-01-04T23:20:53.476Z,4.80
2019-01-04T23:23:34.159Z,5.57
2019-01-04T23:26:22.986Z,5.80
2019-01-04T23:29:12.889Z,5.23
2019-01-04T23:32:02.241Z,4.97
2019-01-04T23:34:51.288Z,4.37
2019-01-04T23:37:41.422Z,5.80
2019-01-04T23:40:43.641Z,4.50
2019-01-04T23:43:49.118Z,5.10
2019-01-04T23:46:37.578Z,4.50
2019-01-04T23:49:46.114Z,4.90
2019-01-04T23:52:39.325Z,4.97
2019-01-04T23:55:33.315Z,4.70
2019-01-04T23:58:26.690Z,4.53
